createdAt,value
2023-05-23T00:02:04.134Z,3.63
2023-05-23T00:04:36.081Z,4.13
2023-05-23T00:07:08.042Z,3.90
2023-05-23T00:09:39.929Z,3.90
2023-05-23T00:12:11.821Z,4.43
2023-05-23T00:14:43.796Z,4.33
2023-05-23T00:17:15.758Z,4.87
2023-05-23T00:19:47.750Z,4.73
2023-05-23T00:22:19.641Z,3.80
2023-05-23T00:24:51.480Z,5.37
2023-05-23T00:27:23.413Z,3.77
2023-05-23T00:29:56.486Z,4.40
2023-05-23T00:32:28.463Z,4.23
2023-05-23T00:35:00.427Z,4.43
2023-05-23T00:37:32.287Z,4.43
2023-05-23T00:40:04.195Z,4.27
2023-05-23T00:42:36.041Z,4.77
2023-05-23T00:45:07.999Z,4.20
2023-05-23T00:47:39.948Z,3.57
2023-05-23T00:50:11.981Z,2.80
2023-05-23T00:52:43.928Z,4.00
2023-05-23T00:55:15.850Z,4.00
2023-05-23T00:57:47.883Z,3.83
2023-05-23T01:00:19.823Z,4.63
2023-05-23T01:02:52.009Z,4.00
2023-05-23T01:05:24.232Z,3.33
2023-05-23T01:07:56.131Z,3.40
2023-05-23T01:10:28.018Z,2.80
2023-05-23T01:13:00.122Z,2.80
2023-05-23T01:15:32.014Z,2.27
2023-05-23T01:18:03.968Z,2.50
2023-05-23T01:20:36.103Z,2.27
2023-05-23T01:23:08.052Z,2.60
2023-05-23T01:25:40.120Z,1.83
2023-05-23T01:28:12.610Z,2.40
2023-05-23T01:30:44.514Z,2.27
2023-05-23T01:33:16.398Z,2.23
2023-05-23T01:35:48.247Z,2.00
2023-05-23T01:38:20.154Z,2.50
2023-05-23T01:40:52.009Z,1.80
2023-05-23T01:43:23.886Z,1.80
2023-05-23T01:45:57.053Z,2.67
2023-05-23T01:48:28.944Z,2.00
2023-05-23T01:51:02.168Z,2.10
2023-05-23T01:53:34.045Z,2.07
2023-05-23T01:56:05.949Z,1.80
2023-05-23T01:58:37.906Z,1.97
2023-05-23T02:01:09.805Z,2.40
2023-05-23T02:03:41.848Z,2.20
2023-05-23T02:06:14.482Z,2.20
2023-05-23T02:08:46.389Z,2.40
2023-05-23T02:11:18.374Z,2.70
2023-05-23T02:13:50.251Z,2.13
2023-05-23T02:16:22.285Z,2.80
2023-05-23T02:18:54.512Z,3.80
2023-05-23T02:21:26.500Z,2.67
2023-05-23T02:23:58.401Z,2.27
2023-05-23T02:26:30.280Z,3.53
2023-05-23T02:29:02.445Z,2.60
2023-05-23T02:31:34.360Z,3.23
2023-05-23T02:34:06.475Z,2.30
2023-05-23T02:36:38.365Z,2.93
2023-05-23T02:39:10.235Z,3.87
2023-05-23T02:41:42.264Z,3.77
2023-05-23T02:44:14.137Z,2.30
2023-05-23T02:46:46.328Z,2.63
2023-05-23T02:49:18.319Z,2.43
2023-05-23T02:51:50.234Z,2.83
2023-05-23T02:54:22.384Z,2.50
2023-05-23T02:56:54.384Z,3.13
2023-05-23T02:59:26.842Z,2.80
2023-05-23T03:01:59.017Z,3.27
2023-05-23T03:04:30.840Z,2.90
2023-05-23T03:07:03.061Z,4.07
2023-05-23T03:09:35.904Z,3.40
2023-05-23T03:12:07.818Z,3.27
2023-05-23T03:14:39.661Z,3.13
2023-05-23T03:17:11.507Z,3.23
2023-05-23T03:19:43.454Z,3.00
2023-05-23T03:22:15.411Z,2.50
2023-05-23T03:24:47.294Z,3.10
2023-05-23T03:27:19.174Z,4.63
2023-05-23T03:29:51.171Z,3.30
2023-05-23T03:32:23.003Z,3.67
2023-05-23T03:34:54.960Z,3.30
2023-05-23T03:37:26.824Z,2.60
2023-05-23T03:39:58.664Z,2.90
2023-05-23T03:42:30.540Z,2.77
2023-05-23T03:45:02.406Z,3.10
2023-05-23T03:47:34.413Z,2.73
2023-05-23T03:50:06.875Z,2.70
2023-05-23T03:52:39.198Z,3.53
2023-05-23T03:55:11.058Z,2.40
2023-05-23T03:57:43.281Z,2.63
2023-05-23T04:00:16.129Z,2.40
2023-05-23T04:02:52.696Z,2.07
2023-05-23T04:05:26.478Z,3.93
2023-05-23T04:07:58.398Z,2.43
2023-05-23T04:10:30.289Z,2.40
2023-05-23T04:13:03.176Z,2.17
2023-05-23T04:15:35.086Z,3.43
2023-05-23T04:18:11.397Z,2.13
2023-05-23T04:20:43.266Z,1.53
2023-05-23T04:23:15.645Z,1.40
2023-05-23T04:25:49.265Z,1.50
2023-05-23T04:28:22.841Z,2.13
2023-05-23T04:30:54.871Z,2.00
2023-05-23T04:33:28.604Z,1.33
2023-05-23T04:36:00.553Z,2.67
2023-05-23T04:38:32.411Z,1.47
2023-05-23T04:41:04.815Z,1.97
2023-05-23T04:43:53.718Z,1.70
2023-05-23T04:46:27.407Z,1.33
2023-05-23T04:49:15.685Z,2.73
2023-05-23T04:51:47.730Z,1.17
2023-05-23T04:54:27.095Z,2.30
2023-05-23T04:57:00.208Z,2.13
2023-05-23T04:59:33.682Z,1.47
2023-05-23T05:02:07.104Z,1.40
2023-05-23T05:04:39.283Z,1.90
2023-05-23T05:07:11.336Z,2.43
2023-05-23T05:09:43.767Z,2.07
2023-05-23T05:12:16.397Z,1.40
2023-05-23T05:14:48.354Z,2.63
2023-05-23T05:17:20.485Z,1.97
2023-05-23T05:19:54.074Z,1.83
2023-05-23T05:22:26.003Z,1.70
2023-05-23T05:24:58.318Z,2.23
2023-05-23T05:27:30.256Z,2.10
2023-05-23T05:30:02.357Z,1.73
2023-05-23T05:32:34.850Z,1.90
2023-05-23T05:35:06.976Z,1.70
2023-05-23T05:37:39.435Z,2.80
2023-05-23T05:40:11.963Z,2.30
2023-05-23T05:42:45.559Z,1.70
2023-05-23T05:45:17.458Z,2.00
2023-05-23T05:47:50.997Z,1.77
2023-05-23T05:50:24.583Z,3.00
2023-05-23T05:52:56.772Z,2.30
2023-05-23T05:55:28.651Z,2.27
2023-05-23T05:58:01.196Z,2.40
2023-05-23T06:00:34.783Z,2.23
2023-05-23T06:03:06.840Z,2.60
2023-05-23T06:05:40.439Z,2.10
2023-05-23T06:08:12.350Z,1.97
2023-05-23T06:10:44.274Z,2.10
2023-05-23T06:13:16.210Z,2.60
2023-05-23T06:15:49.798Z,1.97
2023-05-23T06:18:21.856Z,3.63
2023-05-23T06:20:54.912Z,2.60
2023-05-23T06:23:27.053Z,2.20
2023-05-23T06:25:58.937Z,2.10
2023-05-23T06:28:30.764Z,1.70
2023-05-23T06:31:02.642Z,2.20
2023-05-23T06:33:34.560Z,1.90
2023-05-23T06:36:06.606Z,2.27
2023-05-23T06:38:38.489Z,3.43
2023-05-23T06:41:10.676Z,1.87
2023-05-23T06:43:42.824Z,2.07
2023-05-23T06:46:19.481Z,1.97
2023-05-23T06:49:02.592Z,1.97
2023-05-23T06:51:25.596Z,2.50
2023-05-23T06:53:58.188Z,1.37
2023-05-23T06:56:30.246Z,1.17
2023-05-23T06:59:02.987Z,1.43
2023-05-23T07:01:34.975Z,1.80
2023-05-23T07:04:07.090Z,2.13
2023-05-23T07:06:39.381Z,1.40
2023-05-23T07:09:12.457Z,0.90
2023-05-23T07:11:44.749Z,1.27
2023-05-23T07:14:17.244Z,1.10
2023-05-23T07:16:49.940Z,1.63
2023-05-23T07:19:21.893Z,1.00
2023-05-23T07:21:55.517Z,1.83
2023-05-23T07:24:27.415Z,0.87
2023-05-23T07:27:00.387Z,1.30
2023-05-23T07:29:32.315Z,1.93
2023-05-23T07:32:04.158Z,1.63
2023-05-23T07:34:36.148Z,1.60
2023-05-23T07:37:08.026Z,1.07
2023-05-23T07:39:41.606Z,1.13
2023-05-23T07:42:13.785Z,1.83
2023-05-23T07:44:45.864Z,1.03
2023-05-23T07:47:17.863Z,1.23
2023-05-23T07:49:50.508Z,0.97
2023-05-23T07:52:22.718Z,1.70
2023-05-23T07:54:54.986Z,1.73
2023-05-23T07:57:27.489Z,1.50
2023-05-23T07:59:59.617Z,1.00
2023-05-23T08:02:32.295Z,1.03
2023-05-23T08:05:04.329Z,1.10
2023-05-23T08:07:36.231Z,2.43
2023-05-23T08:10:09.272Z,1.87
2023-05-23T08:12:43.199Z,1.63
2023-05-23T08:15:16.782Z,1.60
2023-05-23T08:17:50.493Z,1.87
2023-05-23T08:20:22.587Z,1.47
2023-05-23T08:22:55.185Z,1.80
2023-05-23T08:25:27.255Z,0.90
2023-05-23T08:27:59.234Z,1.23
2023-05-23T08:30:33.021Z,1.87
2023-05-23T08:33:05.510Z,1.47
2023-05-23T08:35:38.292Z,1.37
2023-05-23T08:38:12.060Z,1.43
2023-05-23T08:40:45.770Z,1.00
2023-05-23T08:43:18.105Z,2.33
2023-05-23T08:45:50.060Z,2.00
2023-05-23T08:48:21.962Z,1.27
2023-05-23T08:50:54.872Z,1.33
2023-05-23T08:53:26.909Z,1.70
2023-05-23T08:56:00.549Z,0.97
2023-05-23T08:58:33.723Z,1.80
2023-05-23T09:01:07.020Z,1.43
2023-05-23T09:03:39.167Z,1.10
2023-05-23T09:06:17.105Z,1.10
2023-05-23T09:08:49.576Z,1.93
2023-05-23T09:11:23.114Z,0.90
2023-05-23T09:13:55.910Z,1.83
2023-05-23T09:16:28.255Z,1.30
2023-05-23T09:19:00.929Z,1.13
2023-05-23T09:21:33.563Z,1.27
2023-05-23T09:24:07.153Z,1.30
2023-05-23T09:26:46.366Z,1.87
2023-05-23T09:29:18.452Z,1.30
2023-05-23T09:31:50.375Z,1.50
2023-05-23T09:34:22.374Z,1.60
2023-05-23T09:36:54.321Z,2.03
2023-05-23T09:39:26.391Z,1.40
2023-05-23T09:41:58.489Z,2.17
2023-05-23T09:44:30.478Z,1.20
2023-05-23T09:47:02.571Z,2.37
2023-05-23T09:49:34.730Z,1.43
2023-05-23T09:52:06.689Z,1.63
2023-05-23T09:54:38.931Z,1.53
2023-05-23T09:57:10.809Z,0.93
2023-05-23T09:59:42.790Z,1.00
2023-05-23T10:02:14.691Z,0.90
2023-05-23T10:04:46.619Z,2.10
2023-05-23T10:07:18.757Z,3.13
2023-05-23T10:09:50.638Z,1.90
2023-05-23T10:12:22.561Z,1.13
2023-05-23T10:14:54.735Z,1.30
2023-05-23T10:17:26.678Z,1.03
2023-05-23T10:19:58.559Z,1.40
2023-05-23T10:22:30.448Z,1.40
2023-05-23T10:25:02.369Z,0.93
2023-05-23T10:27:34.287Z,1.30
2023-05-23T10:30:06.215Z,1.73
2023-05-23T10:32:38.146Z,1.13
2023-05-23T10:35:10.241Z,1.07
2023-05-23T10:37:42.522Z,1.87
2023-05-23T10:40:14.547Z,1.20
2023-05-23T10:42:46.627Z,1.07
2023-05-23T10:45:18.669Z,0.97
2023-05-23T10:47:50.595Z,1.53
2023-05-23T10:50:22.674Z,1.30
2023-05-23T10:52:56.896Z,1.20
2023-05-23T10:55:28.785Z,1.27
2023-05-23T10:58:00.807Z,2.70
2023-05-23T11:00:32.706Z,1.13
2023-05-23T11:03:04.681Z,1.10
2023-05-23T11:05:36.995Z,1.10
2023-05-23T11:08:08.950Z,1.30
2023-05-23T11:10:41.061Z,1.20
2023-05-23T11:13:13.200Z,1.40
2023-05-23T11:15:45.164Z,1.40
2023-05-23T11:18:17.231Z,1.40
2023-05-23T11:20:49.111Z,1.50
2023-05-23T11:23:21.118Z,1.03
2023-05-23T11:25:53.068Z,2.10
2023-05-23T11:28:25.167Z,1.00
2023-05-23T11:30:57.245Z,1.10
2023-05-23T11:33:29.243Z,0.90
2023-05-23T11:36:01.160Z,1.30
2023-05-23T11:38:33.026Z,2.17
2023-05-23T11:41:05.146Z,2.60
2023-05-23T11:43:37.010Z,1.00
2023-05-23T11:46:08.988Z,0.80
2023-05-23T11:48:41.390Z,1.00
2023-05-23T11:51:13.322Z,2.33
2023-05-23T11:53:45.321Z,1.20
2023-05-23T11:56:17.482Z,1.50
2023-05-23T11:58:49.617Z,0.87
2023-05-23T12:01:21.597Z,1.30
2023-05-23T12:03:53.689Z,1.30
2023-05-23T12:06:25.941Z,1.70
2023-05-23T12:08:57.845Z,1.20
2023-05-23T12:11:29.804Z,1.30
2023-05-23T12:14:01.744Z,1.30
2023-05-23T12:16:33.752Z,0.87
2023-05-23T12:19:06.005Z,1.87
2023-05-23T12:21:38.188Z,1.57
2023-05-23T12:24:10.333Z,1.13
2023-05-23T12:26:42.274Z,1.20
2023-05-23T12:29:14.255Z,1.73
2023-05-23T12:31:46.253Z,1.30
2023-05-23T12:34:18.275Z,1.13
2023-05-23T12:36:54.955Z,1.57
2023-05-23T12:39:23.851Z,1.23
2023-05-23T12:41:55.798Z,1.23
2023-05-23T12:44:27.677Z,1.43
2023-05-23T12:46:59.590Z,1.47
2023-05-23T12:49:31.492Z,1.23
2023-05-23T12:52:03.764Z,1.00
2023-05-23T12:54:35.633Z,1.33
2023-05-23T12:57:07.554Z,1.30
2023-05-23T12:59:39.461Z,0.80
2023-05-23T13:02:11.421Z,0.97
2023-05-23T13:04:43.350Z,0.83
2023-05-23T13:07:15.396Z,1.70
2023-05-23T13:09:47.271Z,0.90
2023-05-23T13:12:19.136Z,1.63
2023-05-23T13:14:51.006Z,1.27
2023-05-23T13:17:22.979Z,1.67
2023-05-23T13:19:54.960Z,1.40
2023-05-23T13:22:26.882Z,0.90
2023-05-23T13:24:58.788Z,1.30
2023-05-23T13:27:30.754Z,1.00
2023-05-23T13:30:02.725Z,1.00
2023-05-23T13:32:34.637Z,0.87
2023-05-23T13:35:06.660Z,1.07
2023-05-23T13:37:38.519Z,1.23
2023-05-23T13:40:10.585Z,0.90
2023-05-23T13:42:42.416Z,1.60
2023-05-23T13:45:14.409Z,1.47
2023-05-23T13:47:46.254Z,0.80
2023-05-23T13:50:18.208Z,1.47
2023-05-23T13:52:50.224Z,1.20
2023-05-23T13:55:22.118Z,1.00
2023-05-23T13:57:53.988Z,1.47
2023-05-23T14:00:25.870Z,1.40
2023-05-23T14:02:57.769Z,1.17
2023-05-23T14:05:29.819Z,0.83
2023-05-23T14:08:01.693Z,0.77
2023-05-23T14:10:33.688Z,1.03
2023-05-23T14:13:05.588Z,2.57
2023-05-23T14:15:37.473Z,1.30
2023-05-23T14:18:09.401Z,0.90
2023-05-23T14:20:41.241Z,1.30
2023-05-23T14:23:13.127Z,1.10
2023-05-23T14:25:45.106Z,0.90
2023-05-23T14:28:16.961Z,2.00
2023-05-23T14:30:49.142Z,2.20
2023-05-23T14:33:21.079Z,1.70
2023-05-23T14:35:53.092Z,2.13
2023-05-23T14:38:24.953Z,0.90
2023-05-23T14:40:56.904Z,0.90
2023-05-23T14:43:28.839Z,0.70
2023-05-23T14:46:00.744Z,1.10
2023-05-23T14:48:32.759Z,0.70
2023-05-23T14:51:04.605Z,1.20
2023-05-23T14:53:36.501Z,0.90
2023-05-23T14:56:08.335Z,1.20
2023-05-23T14:58:40.223Z,0.83
2023-05-23T15:01:12.068Z,0.97
2023-05-23T15:03:44.005Z,1.23
2023-05-23T15:06:15.922Z,0.70
2023-05-23T15:08:47.961Z,1.30
2023-05-23T15:11:19.857Z,1.03
2023-05-23T15:13:51.822Z,0.70
2023-05-23T15:16:23.834Z,0.80
2023-05-23T15:18:57.512Z,0.70
2023-05-23T15:21:30.345Z,2.60
2023-05-23T15:24:02.690Z,0.97
2023-05-23T15:26:34.568Z,1.00
2023-05-23T15:29:06.559Z,1.73
2023-05-23T15:31:38.639Z,0.90
2023-05-23T15:34:11.250Z,1.07
2023-05-23T15:36:43.562Z,1.03
2023-05-23T15:39:15.603Z,1.53
2023-05-23T15:41:47.498Z,0.77
2023-05-23T15:44:19.441Z,1.13
2023-05-23T15:46:51.756Z,0.80
2023-05-23T15:49:26.985Z,1.00
2023-05-23T15:51:57.213Z,0.93
2023-05-23T15:54:29.089Z,2.17
2023-05-23T15:57:01.071Z,1.67
2023-05-23T15:59:33.842Z,1.00
2023-05-23T16:02:06.818Z,1.27
2023-05-23T16:04:38.920Z,0.90
2023-05-23T16:07:10.927Z,2.43
2023-05-23T16:09:42.856Z,1.57
2023-05-23T16:12:14.838Z,1.47
2023-05-23T16:14:46.782Z,1.23
2023-05-23T16:17:18.644Z,0.80
2023-05-23T16:19:50.729Z,0.67
2023-05-23T16:22:22.912Z,0.67
2023-05-23T16:24:55.592Z,0.70
2023-05-23T16:27:27.615Z,0.73
2023-05-23T16:29:59.621Z,1.40
2023-05-23T16:32:31.866Z,1.07
2023-05-23T16:35:03.984Z,1.13
2023-05-23T16:37:35.932Z,0.97
2023-05-23T16:40:07.798Z,1.63
2023-05-23T16:42:39.710Z,0.90
2023-05-23T16:45:11.629Z,1.10
2023-05-23T16:47:43.526Z,0.67
2023-05-23T16:50:15.709Z,0.93
2023-05-23T16:52:48.115Z,1.47
2023-05-23T16:55:20.031Z,0.63
2023-05-23T16:57:51.970Z,0.77
2023-05-23T17:00:23.809Z,0.93
2023-05-23T17:02:55.735Z,0.90
2023-05-23T17:05:27.857Z,1.43
2023-05-23T17:08:00.306Z,1.10
2023-05-23T17:10:32.928Z,0.60
2023-05-23T17:13:05.384Z,1.10
2023-05-23T17:15:37.432Z,0.80
2023-05-23T17:18:09.696Z,0.87
2023-05-23T17:20:41.857Z,0.98
2023-05-23T17:23:13.738Z,0.80
2023-05-23T17:25:45.576Z,1.33
2023-05-23T17:28:18.038Z,1.27
2023-05-23T17:30:50.481Z,1.03
2023-05-23T17:33:22.337Z,0.80
2023-05-23T17:35:54.298Z,2.00
2023-05-23T17:38:26.168Z,1.30
2023-05-23T17:40:58.038Z,1.10
2023-05-23T17:43:29.926Z,0.57
2023-05-23T17:46:01.802Z,1.00
2023-05-23T17:48:46.475Z,0.70
2023-05-23T17:51:07.172Z,0.47
2023-05-23T17:53:39.126Z,0.83
2023-05-23T17:56:10.986Z,0.97
2023-05-23T17:58:44.322Z,0.93
2023-05-23T18:01:16.626Z,0.73
2023-05-23T18:03:48.852Z,0.70
2023-05-23T18:06:21.275Z,0.93
2023-05-23T18:08:53.171Z,0.63
2023-05-23T18:11:25.585Z,1.43
2023-05-23T18:13:57.547Z,1.20
2023-05-23T18:16:29.450Z,0.53
2023-05-23T18:19:01.402Z,1.50
2023-05-23T18:21:33.549Z,0.50
2023-05-23T18:24:05.693Z,0.63
2023-05-23T18:26:37.924Z,1.07
2023-05-23T18:29:10.194Z,0.77
2023-05-23T18:31:42.330Z,0.80
2023-05-23T18:34:14.264Z,1.17
2023-05-23T18:36:46.496Z,1.83
2023-05-23T18:39:18.494Z,0.73
2023-05-23T18:41:50.414Z,1.20
2023-05-23T18:44:22.273Z,0.83
2023-05-23T18:46:54.382Z,1.50
2023-05-23T18:49:26.297Z,0.50
2023-05-23T18:51:58.164Z,0.70
2023-05-23T18:54:30.100Z,0.70
2023-05-23T18:57:01.937Z,1.00
2023-05-23T18:59:33.824Z,0.80
2023-05-23T19:02:05.798Z,1.37
2023-05-23T19:04:38.992Z,0.70
2023-05-23T19:07:11.360Z,1.07
2023-05-23T19:09:43.285Z,0.80
2023-05-23T19:12:15.212Z,0.80
2023-05-23T19:14:47.356Z,1.20
2023-05-23T19:17:19.259Z,1.73
2023-05-23T19:19:51.334Z,1.27
2023-05-23T19:22:23.297Z,1.63
2023-05-23T19:24:55.398Z,1.17
2023-05-23T19:27:27.503Z,1.00
2023-05-23T19:29:59.489Z,0.60
2023-05-23T19:32:31.502Z,1.40
2023-05-23T19:35:03.550Z,0.73
2023-05-23T19:37:35.541Z,0.87
2023-05-23T19:40:07.620Z,1.37
2023-05-23T19:42:39.636Z,0.90
2023-05-23T19:45:11.907Z,1.37
2023-05-23T19:47:43.833Z,0.70
2023-05-23T19:50:15.728Z,1.70
2023-05-23T19:52:47.642Z,0.70
2023-05-23T19:55:19.549Z,1.00
2023-05-23T19:57:51.466Z,1.40
2023-05-23T20:00:23.390Z,0.87
2023-05-23T20:02:55.341Z,0.90
2023-05-23T20:05:27.293Z,0.70
2023-05-23T20:07:59.188Z,1.17
2023-05-23T20:10:31.116Z,0.90
2023-05-23T20:13:03.026Z,1.27
2023-05-23T20:15:39.796Z,1.70
2023-05-23T20:18:08.486Z,0.93
2023-05-23T20:20:40.803Z,0.83
2023-05-23T20:23:13.148Z,0.90
2023-05-23T20:25:45.291Z,0.93
2023-05-23T20:28:17.184Z,1.73
2023-05-23T20:30:49.147Z,1.30
2023-05-23T20:33:21.085Z,0.53
2023-05-23T20:35:53.069Z,0.77
2023-05-23T20:38:25.000Z,1.90
2023-05-23T20:40:56.921Z,1.00
2023-05-23T20:43:28.795Z,1.00
2023-05-23T20:46:00.725Z,1.23
2023-05-23T20:48:32.777Z,1.23
2023-05-23T20:51:04.954Z,0.80
2023-05-23T20:53:36.857Z,0.80
2023-05-23T20:56:08.789Z,1.20
2023-05-23T20:58:40.693Z,1.07
2023-05-23T21:01:12.620Z,0.90
2023-05-23T21:03:44.673Z,1.97
2023-05-23T21:06:16.560Z,0.60
2023-05-23T21:08:48.503Z,1.00
2023-05-23T21:11:20.412Z,0.60
2023-05-23T21:13:52.339Z,1.37
2023-05-23T21:16:24.309Z,1.30
2023-05-23T21:18:56.733Z,1.43
2023-05-23T21:21:28.679Z,1.23
2023-05-23T21:24:00.797Z,2.13
2023-05-23T21:26:32.701Z,2.13
2023-05-23T21:29:04.728Z,1.83
2023-05-23T21:31:41.424Z,0.90
2023-05-23T21:34:22.309Z,1.00
2023-05-23T21:36:43.560Z,1.90
2023-05-23T21:39:15.467Z,0.73
2023-05-23T21:41:47.357Z,1.83
2023-05-23T21:44:19.502Z,2.10
2023-05-23T21:46:51.413Z,2.33
2023-05-23T21:49:23.297Z,1.13
2023-05-23T21:51:55.162Z,1.53
2023-05-23T21:54:27.075Z,0.97
2023-05-23T21:56:59.010Z,1.77
2023-05-23T21:59:30.928Z,1.10
2023-05-23T22:02:02.870Z,1.03
2023-05-23T22:04:34.816Z,1.20
2023-05-23T22:07:06.753Z,1.07
2023-05-23T22:09:38.609Z,1.03
2023-05-23T22:12:10.494Z,1.07
2023-05-23T22:14:42.495Z,0.80
2023-05-23T22:17:15.699Z,1.47
2023-05-23T22:19:48.204Z,1.13
2023-05-23T22:22:20.459Z,2.30
2023-05-23T22:24:52.880Z,1.20
2023-05-23T22:27:25.300Z,1.03
2023-05-23T22:29:57.178Z,1.00
2023-05-23T22:32:29.093Z,2.80
2023-05-23T22:35:00.954Z,1.63
2023-05-23T22:37:32.877Z,0.67
2023-05-23T22:40:05.281Z,0.93
2023-05-23T22:42:37.372Z,1.60
2023-05-23T22:45:09.422Z,1.00
2023-05-23T22:47:41.337Z,0.97
2023-05-23T22:50:13.247Z,1.40
2023-05-23T22:52:45.213Z,1.07
2023-05-23T22:55:17.110Z,1.10
2023-05-23T22:57:49.042Z,1.10
2023-05-23T23:00:20.934Z,1.40
2023-05-23T23:02:52.934Z,1.30
2023-05-23T23:05:24.929Z,1.20
2023-05-23T23:07:57.105Z,0.87
2023-05-23T23:10:29.056Z,0.80
2023-05-23T23:13:00.972Z,1.57
2023-05-23T23:15:33.095Z,1.63
2023-05-23T23:18:05.166Z,1.00
2023-05-23T23:20:37.237Z,1.17
2023-05-23T23:23:09.316Z,1.10
2023-05-23T23:25:41.245Z,0.90
2023-05-23T23:28:13.163Z,1.33
2023-05-23T23:30:45.239Z,1.57
2023-05-23T23:33:17.919Z,1.30
2023-05-23T23:35:49.944Z,0.87
2023-05-23T23:38:21.829Z,1.17
2023-05-23T23:40:53.777Z,1.70
2023-05-23T23:43:25.680Z,1.50
2023-05-23T23:45:57.652Z,0.97
2023-05-23T23:48:29.712Z,1.27
2023-05-23T23:51:01.577Z,1.13
2023-05-23T23:53:33.467Z,1.03
2023-05-23T23:56:05.378Z,1.40
2023-05-23T23:58:37.254Z,1.17
